Time;durP1;ratioP1;P1;durP2;ratioP2;P2;SDS_P1;SDS_P2;PMS_P1;PMS_P2;Temp;Humidity;BMP_temperature;BMP_pressure;BME280_temperature;BME280_humidity;BME280_pressure;Samples;Min_cycle;Max_cycle;Signal;HPM_P1;HPM_P2
2022/03/12 00:00:28;;;;;;;16.75;9.55;;;3.30;44.80;;;;;;5094176;28;20229;-49
2022/03/12 00:02:54;;;;;;;18.63;11.18;;;3.40;44.90;;;;;;5094062;28;20218;-49
2022/03/12 00:05:21;;;;;;;19.60;11.35;;;3.40;45.10;;;;;;5094101;28;20576;-48
2022/03/12 00:07:51;;;;;;;19.77;11.95;;;3.40;45.10;;;;;;5094234;28;20195;-48
2022/03/12 00:10:18;;;;;;;19.23;11.27;;;3.30;45.20;;;;;;5093684;28;20314;-49
2022/03/12 00:12:45;;;;;;;19.10;11.38;;;3.30;45.20;;;;;;5075664;28;20198;-49
2022/03/12 00:15:14;;;;;;;21.65;12.32;;;3.20;45.30;;;;;;5093936;28;20194;-48
2022/03/12 00:17:44;;;;;;;19.50;11.45;;;3.30;45.50;;;;;;5093695;28;20199;-49
2022/03/12 00:20:12;;;;;;;18.65;10.35;;;3.30;45.50;;;;;;5093596;28;20263;-48
2022/03/12 00:22:41;;;;;;;19.75;11.60;;;3.20;45.40;;;;;;5093946;28;20222;-49
2022/03/12 00:25:10;;;;;;;19.88;10.38;;;2.60;45.30;;;;;;5093936;28;20203;-50
2022/03/12 00:27:39;;;;;;;17.13;11.10;;;3.10;45.50;;;;;;5093698;28;20194;-49
2022/03/12 00:30:07;;;;;;;20.65;11.25;;;3.20;45.90;;;;;;5093716;28;20309;-49
2022/03/12 00:32:37;;;;;;;16.65;10.77;;;3.10;45.70;;;;;;5093586;28;20818;-50
2022/03/12 00:35:04;;;;;;;19.73;11.98;;;3.10;46.10;;;;;;5094254;28;20198;-50
2022/03/12 00:37:30;;;;;;;19.73;11.60;;;3.10;46.00;;;;;;5093462;28;20195;-51
2022/03/12 00:39:57;;;;;;;17.88;11.60;;;2.60;45.90;;;;;;5093320;28;20312;-50
2022/03/12 00:42:23;;;;;;;17.35;10.68;;;3.10;46.30;;;;;;5093371;28;20241;-50
2022/03/12 00:44:50;;;;;;;20.70;11.73;;;2.80;46.20;;;;;;5093024;28;20218;-51
2022/03/12 00:47:17;;;;;;;22.30;11.90;;;3.00;46.60;;;;;;5093024;28;20286;-50
2022/03/12 00:49:45;;;;;;;17.65;10.70;;;2.80;46.60;;;;;;5093061;28;20214;-50
2022/03/12 00:52:12;;;;;;;22.52;11.02;;;2.90;46.60;;;;;;5093157;28;20667;-50
2022/03/12 00:54:39;;;;;;;19.60;10.65;;;2.60;46.70;;;;;;5093190;28;20195;-50
2022/03/12 00:57:05;;;;;;;20.60;10.10;;;2.70;46.90;;;;;;5093058;28;20585;-50
2022/03/12 00:59:32;;;;;;;14.63;11.13;;;2.90;47.10;;;;;;5074290;28;20218;-50
2022/03/12 01:01:58;;;;;;;22.45;11.27;;;2.40;46.90;;;;;;5092574;28;20702;-50
2022/03/12 01:04:25;;;;;;;13.98;9.98;;;2.90;47.40;;;;;;5092790;28;20589;-50
2022/03/12 01:06:53;;;;;;;17.95;10.85;;;2.80;47.40;;;;;;5092985;28;20202;-50
2022/03/12 01:09:19;;;;;;;20.23;11.10;;;2.90;47.60;;;;;;5092405;28;20203;-50
2022/03/12 01:11:46;;;;;;;16.60;9.98;;;2.70;47.60;;;;;;5091953;28;20187;-50
2022/03/12 01:14:13;;;;;;;15.55;10.80;;;2.60;47.60;;;;;;5091994;28;20646;-50
2022/03/12 01:16:39;;;;;;;20.88;11.15;;;2.80;47.80;;;;;;5092145;28;20190;-50
2022/03/12 01:19:06;;;;;;;15.15;10.30;;;2.60;47.90;;;;;;5091667;28;20285;-51
2022/03/12 01:21:36;;;;;;;20.33;10.52;;;2.70;48.00;;;;;;5091920;28;20196;-50
2022/03/12 01:24:04;;;;;;;16.92;10.30;;;2.40;48.00;;;;;;5091875;28;20305;-50
2022/03/12 01:26:34;;;;;;;15.40;10.48;;;2.70;48.40;;;;;;5091672;28;20195;-50
2022/03/12 01:29:01;;;;;;;19.27;11.20;;;2.80;48.60;;;;;;5091496;28;20187;-50
2022/03/12 01:31:28;;;;;;;19.55;10.48;;;2.50;48.60;;;;;;5091350;28;20689;-49
2022/03/12 01:33:54;;;;;;;21.27;10.25;;;2.70;48.30;;;;;;5091656;28;20278;-50
2022/03/12 01:36:22;;;;;;;17.65;9.60;;;2.60;48.50;;;;;;5091668;28;20206;-50
2022/03/12 01:38:50;;;;;;;21.05;9.93;;;2.70;49.00;;;;;;5091497;28;20194;-49
2022/03/12 01:41:21;;;;;;;14.60;10.30;;;2.30;48.70;;;;;;5091243;28;20218;-50
2022/03/12 01:43:49;;;;;;;18.40;10.55;;;2.50;48.80;;;;;;5091439;28;20613;-49
2022/03/12 01:46:16;;;;;;;17.50;11.73;;;2.30;48.80;;;;;;5091029;28;20713;-50
2022/03/12 01:48:46;;;;;;;18.08;10.80;;;2.20;48.90;;;;;;5091247;28;20202;-50
2022/03/12 01:51:13;;;;;;;18.35;9.82;;;3.40;49.80;;;;;;5091322;28;20222;-51
2022/03/12 01:53:39;;;;;;;14.40;9.82;;;2.40;49.20;;;;;;5091492;28;20670;-50
2022/03/12 01:56:06;;;;;;;16.17;10.52;;;2.40;49.10;;;;;;5091192;28;20206;-50
2022/03/12 01:58:36;;;;;;;16.15;10.32;;;2.40;49.10;;;;;;5091144;28;20194;-50
2022/03/12 02:01:03;;;;;;;21.35;10.40;;;2.10;49.10;;;;;;5091151;28;20293;-51
2022/03/12 02:03:31;;;;;;;16.20;10.23;;;2.30;49.40;;;;;;5091410;28;20229;-50
2022/03/12 02:05:58;;;;;;;22.42;11.05;;;2.00;49.10;;;;;;5091297;28;20568;-49
2022/03/12 02:08:28;;;;;;;18.17;11.25;;;2.10;49.30;;;;;;5091049;28;20199;-50
2022/03/12 02:10:58;;;;;;;21.30;11.17;;;1.80;49.30;;;;;;5054939;28;1017707;-49
2022/03/12 02:13:28;;;;;;;21.50;10.98;;;2.40;49.60;;;;;;5092021;28;20400;-50
2022/03/12 02:16:06;;;;;;;16.33;10.43;;;2.30;49.60;;;;;;5091889;28;20190;-50
2022/03/12 02:18:34;;;;;;;19.73;10.93;;;2.30;49.70;;;;;;5091355;28;20198;-50
2022/03/12 02:21:01;;;;;;;16.80;10.70;;;1.50;49.20;;;;;;5091513;28;20694;-50
2022/03/12 02:23:27;;;;;;;19.52;10.63;;;2.00;49.60;;;;;;5091519;28;20732;-50
2022/03/12 02:26:03;;;;;;;18.17;11.45;;;1.90;49.50;;;;;;5091936;28;20623;-50
2022/03/12 02:28:30;;;;;;;18.17;11.82;;;2.20;49.70;;;;;;5091647;28;20203;-50
2022/03/12 02:30:58;;;;;;;18.95;11.10;;;2.30;49.20;;;;;;5091268;28;20725;-50
2022/03/12 02:33:27;;;;;;;19.90;11.73;;;2.20;49.70;;;;;;5091694;28;20666;-50
2022/03/12 02:35:54;;;;;;;17.20;10.98;;;2.00;49.60;;;;;;5091606;28;20277;-50
2022/03/12 02:38:22;;;;;;;23.25;10.93;;;1.40;49.20;;;;;;5091771;28;20197;-52
2022/03/12 02:40:50;;;;;;;23.42;11.85;;;1.90;49.70;;;;;;5091738;28;20245;-48
2022/03/12 02:43:23;;;;;;;18.73;11.20;;;2.20;49.80;;;;;;5091674;28;20202;-49
2022/03/12 02:45:51;;;;;;;21.38;11.30;;;2.00;49.70;;;;;;5091316;28;20198;-49
2022/03/12 02:48:19;;;;;;;15.40;9.68;;;1.40;48.80;;;;;;5091481;28;20216;-47
2022/03/12 02:50:48;;;;;;;29.23;13.55;;;1.40;49.20;;;;;;5091210;28;20340;-48
2022/03/12 02:53:17;;;;;;;14.45;10.70;;;1.90;49.60;;;;;;5091385;28;20600;-51
2022/03/12 02:55:45;;;;;;;21.23;11.02;;;1.90;49.70;;;;;;5091350;28;20208;-49
2022/03/12 02:58:14;;;;;;;21.42;12.85;;;1.90;49.70;;;;;;5091701;28;20688;-48
2022/03/12 03:00:42;;;;;;;16.42;11.23;;;2.10;49.90;;;;;;5090922;28;20215;-49
2022/03/12 03:03:09;;;;;;;21.90;12.65;;;1.80;49.70;;;;;;5091327;28;20195;-49
2022/03/12 03:05:45;;;;;;;19.45;11.50;;;1.80;49.80;;;;;;5091305;28;20266;-49
2022/03/12 03:08:15;;;;;;;14.88;10.55;;;2.20;50.00;;;;;;5091345;28;20187;-49
2022/03/12 03:10:44;;;;;;;15.40;11.07;;;1.90;49.90;;;;;;5091220;28;20666;-48
2022/03/12 03:13:24;;;;;;;22.60;11.40;;;1.60;49.70;;;;;;5091018;28;20195;-49
2022/03/12 03:15:56;;;;;;;21.23;11.13;;;1.70;49.80;;;;;;5091178;28;20209;-49
2022/03/12 03:18:24;;;;;;;18.02;11.98;;;1.30;49.50;;;;;;5091210;28;20199;-49
2022/03/12 03:20:52;;;;;;;21.10;10.73;;;1.80;49.90;;;;;;5091855;28;20483;-49
2022/03/12 03:23:21;;;;;;;20.83;11.20;;;1.60;49.80;;;;;;5094823;28;20206;-49
2022/03/12 03:25:48;;;;;;;19.60;11.40;;;1.70;49.90;;;;;;5094953;28;20205;-49
2022/03/12 03:28:17;;;;;;;18.73;11.35;;;1.80;49.90;;;;;;5095087;28;20255;-49
2022/03/12 03:30:44;;;;;;;23.27;11.93;;;1.80;50.00;;;;;;5094684;28;20227;-51
2022/03/12 03:33:14;;;;;;;17.88;11.30;;;1.80;50.10;;;;;;5094760;28;20564;-48
2022/03/12 03:35:42;;;;;;;18.08;11.20;;;1.80;50.00;;;;;;5094726;28;20183;-48
2022/03/12 03:38:09;;;;;;;18.40;10.25;;;1.80;50.10;;;;;;5095046;28;20279;-49
2022/03/12 03:40:36;;;;;;;18.42;11.15;;;1.40;49.90;;;;;;5094368;28;20218;-48
2022/03/12 03:43:04;;;;;;;22.10;10.85;;;1.90;49.70;;;;;;5094599;28;20199;-49
2022/03/12 03:45:31;;;;;;;14.68;9.95;;;1.80;50.10;;;;;;5076145;28;20222;-49
2022/03/12 03:47:58;;;;;;;22.45;11.77;;;1.60;49.80;;;;;;5094400;28;20689;-49
2022/03/12 03:50:27;;;;;;;20.48;11.20;;;1.70;49.70;;;;;;5094267;28;20203;-49
2022/03/12 03:52:57;;;;;;;19.95;11.98;;;1.70;50.30;;;;;;5089297;28;20199;-50
2022/03/12 03:55:26;;;;;;;21.02;11.70;;;1.80;50.50;;;;;;5074031;28;20184;-49
2022/03/12 03:57:54;;;;;;;16.60;11.07;;;1.80;50.60;;;;;;5073928;28;20237;-49
2022/03/12 04:00:22;;;;;;;17.38;11.88;;;1.60;50.40;;;;;;5073755;28;20298;-48
2022/03/12 04:02:49;;;;;;;20.70;11.55;;;1.90;50.80;;;;;;5074079;28;20573;-49
2022/03/12 04:05:16;;;;;;;17.67;11.75;;;1.40;50.40;;;;;;5073919;28;20301;-49
2022/03/12 04:07:44;;;;;;;22.40;12.65;;;1.50;50.20;;;;;;5073749;28;20199;-49
2022/03/12 04:10:11;;;;;;;21.50;11.93;;;1.50;50.60;;;;;;5073545;28;20227;-49
2022/03/12 04:12:38;;;;;;;26.58;13.02;;;1.60;50.70;;;;;;5073720;28;20245;-48
2022/03/12 04:15:05;;;;;;;22.55;12.07;;;1.60;50.70;;;;;;5073706;28;20724;-48
2022/03/12 04:17:32;;;;;;;18.38;10.68;;;1.60;50.70;;;;;;5073556;28;20195;-49
2022/03/12 04:19:59;;;;;;;19.75;11.70;;;1.50;50.80;;;;;;5073437;28;20478;-49
2022/03/12 04:22:26;;;;;;;21.15;11.60;;;1.60;50.90;;;;;;5073467;28;20195;-49
2022/03/12 04:24:54;;;;;;;22.77;12.20;;;1.60;50.90;;;;;;5073453;28;20294;-49
2022/03/12 04:27:22;;;;;;;17.90;10.50;;;2.00;51.30;;;;;;5073333;28;20202;-49
2022/03/12 04:29:49;;;;;;;20.13;10.57;;;1.50;51.00;;;;;;5073222;28;20679;-49
2022/03/12 04:32:16;;;;;;;21.85;11.55;;;1.50;50.50;;;;;;5072788;28;20229;-48
2022/03/12 04:34:42;;;;;;;25.27;11.65;;;1.20;50.80;;;;;;5073072;28;20596;-48
2022/03/12 04:37:11;;;;;;;18.02;11.40;;;1.30;50.90;;;;;;5073056;28;20340;-49
2022/03/12 04:39:39;;;;;;;18.73;12.07;;;1.40;51.00;;;;;;5072974;28;20226;-50
2022/03/12 04:42:08;;;;;;;17.40;11.18;;;0.80;50.60;;;;;;5073064;28;20194;-49
2022/03/12 04:44:35;;;;;;;18.98;11.73;;;1.30;51.00;;;;;;5073161;28;20219;-49
2022/03/12 04:47:02;;;;;;;18.38;11.75;;;1.60;51.20;;;;;;5073367;28;20198;-49
2022/03/12 04:49:29;;;;;;;20.17;11.68;;;1.30;51.00;;;;;;5072884;28;20217;-50
2022/03/12 04:51:56;;;;;;;18.27;12.15;;;0.90;50.80;;;;;;5072880;28;20191;-50
2022/03/12 04:54:23;;;;;;;22.50;12.75;;;1.50;51.30;;;;;;5072846;28;20732;-49
2022/03/12 04:56:50;;;;;;;24.85;12.43;;;1.30;51.10;;;;;;5072857;28;20218;-51
2022/03/12 04:59:18;;;;;;;24.13;12.38;;;1.60;51.30;;;;;;5072755;28;20273;-49
2022/03/12 05:01:45;;;;;;;29.92;12.90;;;1.80;51.40;;;;;;5072835;28;20202;-49
2022/03/12 05:04:11;;;;;;;21.33;12.20;;;0.80;50.80;;;;;;5072700;28;20414;-48
2022/03/12 05:06:38;;;;;;;20.67;11.88;;;1.30;51.10;;;;;;5072732;28;20671;-49
2022/03/12 05:09:05;;;;;;;18.67;12.15;;;1.90;51.60;;;;;;5072905;28;20531;-49
2022/03/12 05:11:33;;;;;;;22.70;12.15;;;1.30;51.20;;;;;;5111483;23;20231;-44
2022/03/12 05:13:59;;;;;;;21.35;13.00;;;1.50;51.40;;;;;;5093637;28;20199;-44
2022/03/12 05:16:28;;;;;;;23.90;14.43;;;1.30;51.20;;;;;;5093392;28;20199;-44
2022/03/12 05:18:58;;;;;;;22.33;12.15;;;1.40;51.30;;;;;;5093123;28;20201;-44
2022/03/12 05:21:25;;;;;;;25.77;13.55;;;1.40;51.40;;;;;;5093304;28;20246;-44
2022/03/12 05:23:52;;;;;;;34.67;14.55;;;0.70;50.90;;;;;;5074898;28;20423;-44
2022/03/12 05:26:18;;;;;;;24.92;14.68;;;1.20;51.20;;;;;;5093084;28;20218;-44
2022/03/12 05:28:45;;;;;;;22.10;13.05;;;0.90;51.10;;;;;;5092695;28;20675;-44
2022/03/12 05:31:13;;;;;;;26.67;13.63;;;1.20;51.30;;;;;;5093117;28;20224;-44
2022/03/12 05:33:41;;;;;;;24.02;13.05;;;1.30;51.40;;;;;;5093027;28;20201;-44
2022/03/12 05:36:08;;;;;;;21.92;11.52;;;1.40;51.00;;;;;;5092966;28;20357;-44
2022/03/12 05:38:36;;;;;;;24.83;12.60;;;1.10;51.30;;;;;;5092629;28;20614;-44
2022/03/12 05:41:05;;;;;;;20.30;12.18;;;1.50;51.70;;;;;;5092734;28;20209;-44
2022/03/12 05:43:33;;;;;;;18.90;11.90;;;1.40;51.70;;;;;;5092784;28;20198;-44
2022/03/12 05:46:00;;;;;;;24.67;14.20;;;1.30;51.60;;;;;;5092938;28;20218;-44
2022/03/12 05:48:27;;;;;;;20.70;14.27;;;1.30;51.70;;;;;;5093359;28;20206;-44
2022/03/12 05:50:55;;;;;;;19.10;12.60;;;1.20;51.50;;;;;;5094826;28;20259;-45
2022/03/12 05:53:22;;;;;;;24.10;13.50;;;1.30;51.70;;;;;;5073040;28;20237;-44
2022/03/12 05:55:49;;;;;;;20.23;13.75;;;0.90;51.50;;;;;;5074231;28;20183;-45
2022/03/12 05:58:17;;;;;;;20.13;12.98;;;1.30;51.70;;;;;;5072774;28;20690;-45
2022/03/12 06:00:45;;;;;;;23.08;14.13;;;1.30;51.80;;;;;;5073002;28;20218;-45
2022/03/12 06:03:11;;;;;;;20.80;11.85;;;1.20;51.70;;;;;;5072956;28;20285;-45
2022/03/12 06:05:40;;;;;;;23.27;14.05;;;1.40;51.30;;;;;;5072905;28;20218;-45
2022/03/12 06:08:09;;;;;;;28.10;13.80;;;1.00;51.40;;;;;;5073188;28;20202;-45
2022/03/12 06:10:45;;;;;;;27.52;13.50;;;1.40;51.80;;;;;;5072713;28;20302;-45
2022/03/12 06:13:12;;;;;;;24.15;13.35;;;1.50;51.90;;;;;;5073116;28;20277;-44
2022/03/12 06:15:39;;;;;;;20.48;11.90;;;1.40;51.80;;;;;;5073037;28;20279;-44
2022/03/12 06:18:06;;;;;;;22.52;12.90;;;1.60;51.60;;;;;;5073602;28;20195;-44
2022/03/12 06:20:35;;;;;;;22.02;11.82;;;2.10;52.20;;;;;;5072710;28;20222;-44
2022/03/12 06:23:02;;;;;;;23.23;13.50;;;1.40;51.60;;;;;;5072767;28;20203;-45
2022/03/12 06:25:30;;;;;;;26.90;13.93;;;1.60;51.60;;;;;;5072272;28;20219;-45
2022/03/12 06:27:57;;;;;;;21.50;11.70;;;1.90;51.80;;;;;;5072823;28;20199;-44
2022/03/12 06:30:27;;;;;;;21.83;12.30;;;1.60;51.30;;;;;;5071839;28;20604;-45
2022/03/12 06:32:55;;;;;;;23.55;13.52;;;1.30;50.90;;;;;;5072087;28;20660;-44
2022/03/12 06:35:24;;;;;;;19.17;12.18;;;1.80;50.60;;;;;;5071743;28;20679;-45
2022/03/12 06:37:50;;;;;;;20.30;12.25;;;2.20;51.20;;;;;;5071851;28;20206;-44
2022/03/12 06:40:18;;;;;;;14.68;10.68;;;2.00;51.00;;;;;;5071859;28;20606;-45
2022/03/12 06:42:48;;;;;;;25.45;11.80;;;2.10;50.90;;;;;;5072066;28;20214;-44
2022/03/12 06:45:15;;;;;;;20.75;11.90;;;1.70;50.60;;;;;;5072442;28;20211;-44
2022/03/12 06:47:43;;;;;;;22.42;11.80;;;2.10;50.70;;;;;;5072048;28;20195;-44
2022/03/12 06:50:13;;;;;;;23.58;11.65;;;2.20;50.70;;;;;;5071203;28;20219;-44
2022/03/12 06:52:41;;;;;;;20.02;12.68;;;2.60;50.80;;;;;;5071591;28;20199;-44
2022/03/12 06:55:09;;;;;;;19.63;12.75;;;1.90;50.30;;;;;;5053824;28;20202;-44
2022/03/12 06:57:36;;;;;;;25.40;12.43;;;2.40;50.50;;;;;;5075471;28;20206;-44
2022/03/12 07:00:07;;;;;;;19.50;11.18;;;2.20;50.30;;;;;;5075384;28;20234;-46
2022/03/12 07:02:34;;;;;;;21.80;12.82;;;2.60;50.60;;;;;;5075652;28;20573;-46
2022/03/12 07:05:01;;;;;;;24.63;12.43;;;2.50;50.10;;;;;;5075345;28;20721;-44
2022/03/12 07:07:28;;;;;;;24.45;12.18;;;2.40;50.50;;;;;;5075672;28;20199;-45
2022/03/12 07:09:54;;;;;;;20.25;12.05;;;2.50;50.40;;;;;;5075245;28;20298;-44
2022/03/12 07:12:21;;;;;;;20.15;12.00;;;2.80;50.10;;;;;;5074962;28;20204;-44
2022/03/12 07:14:47;;;;;;;20.52;11.77;;;2.50;50.40;;;;;;5075578;28;20202;-45
2022/03/12 07:17:17;;;;;;;21.42;11.88;;;2.20;49.80;;;;;;5075226;28;20187;-45
2022/03/12 07:19:44;;;;;;;21.13;12.70;;;2.30;50.10;;;;;;5075310;28;20226;-45
2022/03/12 07:22:10;;;;;;;22.05;12.10;;;2.50;49.70;;;;;;5076308;28;20213;-45
2022/03/12 07:24:37;;;;;;;23.30;12.18;;;2.50;50.00;;;;;;5076084;28;20206;-45
2022/03/12 07:27:04;;;;;;;23.10;12.10;;;2.80;49.70;;;;;;5076178;28;20196;-45
2022/03/12 07:29:32;;;;;;;28.60;12.95;;;2.90;50.20;;;;;;5075598;28;20200;-46
2022/03/12 07:32:00;;;;;;;20.83;11.93;;;2.80;49.90;;;;;;5075357;28;20280;-46
2022/03/12 07:34:28;;;;;;;15.13;10.93;;;3.00;50.00;;;;;;5075008;28;20207;-46
2022/03/12 07:36:55;;;;;;;23.25;13.18;;;2.90;49.70;;;;;;5074898;28;20195;-46
2022/03/12 07:39:22;;;;;;;24.52;12.07;;;3.00;49.20;;;;;;5074713;28;20652;-46
2022/03/12 07:41:49;;;;;;;17.23;10.40;;;2.60;49.40;;;;;;5075518;28;20234;-45
2022/03/12 07:44:16;;;;;;;22.27;11.55;;;3.00;49.70;;;;;;5075143;28;20222;-46
2022/03/12 07:46:43;;;;;;;19.27;11.80;;;3.10;49.70;;;;;;5075076;28;20229;-46
2022/03/12 07:49:10;;;;;;;19.45;11.35;;;2.80;49.60;;;;;;5074563;28;20203;-46
2022/03/12 07:51:38;;;;;;;18.98;11.68;;;2.90;49.60;;;;;;5074964;28;20226;-46
2022/03/12 07:54:07;;;;;;;23.60;11.85;;;3.00;49.60;;;;;;5074388;28;20213;-46
2022/03/12 07:56:35;;;;;;;18.27;11.90;;;3.20;49.60;;;;;;5075029;28;20192;-46
2022/03/12 07:59:02;;;;;;;23.38;12.13;;;3.10;48.50;;;;;;5074124;28;20285;-45
2022/03/12 08:01:29;;;;;;;17.17;11.55;;;3.20;49.10;;;;;;5074740;28;20714;-45
2022/03/12 08:03:55;;;;;;;20.83;11.98;;;3.20;48.90;;;;;;5074296;28;20656;-44
2022/03/12 08:06:22;;;;;;;19.20;10.80;;;2.90;48.50;;;;;;5074504;28;20219;-45
2022/03/12 08:08:50;;;;;;;19.13;12.48;;;3.20;48.00;;;;;;5073291;28;20191;-44
2022/03/12 08:11:26;;;;;;;21.98;12.35;;;3.40;48.60;;;;;;5074185;28;20223;-45
2022/03/12 08:13:54;;;;;;;22.33;10.70;;;3.50;48.60;;;;;;5074354;28;20215;-45
2022/03/12 08:16:21;;;;;;;18.40;11.18;;;3.30;48.40;;;;;;5074455;28;20631;-45
2022/03/12 08:18:48;;;;;;;17.85;11.88;;;3.40;48.30;;;;;;5073446;28;20278;-45
2022/03/12 08:21:15;;;;;;;18.38;10.93;;;3.60;48.30;;;;;;5074134;28;20222;-45
2022/03/12 08:23:42;;;;;;;17.50;9.77;;;3.10;47.80;;;;;;5074203;28;20622;-45
2022/03/12 08:26:10;;;;;;;16.58;10.10;;;3.80;48.10;;;;;;5073871;28;20242;-45
2022/03/12 08:28:37;;;;;;;17.58;11.15;;;4.20;48.20;;;;;;5073839;28;20550;-45
2022/03/12 08:31:05;;;;;;;13.77;9.18;;;3.60;47.30;;;;;;5055839;28;20223;-45
2022/03/12 08:33:32;;;;;;;17.63;11.05;;;4.00;47.10;;;;;;5073903;28;20199;-45
2022/03/12 08:36:00;;;;;;;19.75;10.50;;;3.80;46.30;;;;;;5073913;28;20187;-45
2022/03/12 08:38:27;;;;;;;14.35;10.23;;;4.10;46.80;;;;;;5073370;28;20241;-46
2022/03/12 08:40:55;;;;;;;15.50;9.40;;;4.30;46.50;;;;;;5073836;28;20227;-46
2022/03/12 08:43:23;;;;;;;16.38;10.45;;;4.20;46.00;;;;;;5074045;28;20198;-45
2022/03/12 08:45:50;;;;;;;14.98;10.30;;;4.40;45.40;;;;;;5073671;28;20222;-46
2022/03/12 08:48:17;;;;;;;16.13;8.70;;;4.40;45.20;;;;;;5073818;28;20209;-46
2022/03/12 08:50:46;;;;;;;14.32;8.82;;;3.80;43.90;;;;;;5073259;28;20216;-45
2022/03/12 08:53:12;;;;;;;14.10;9.25;;;4.60;43.80;;;;;;5073663;28;20286;-45
2022/03/12 08:55:40;;;;;;;16.50;9.85;;;4.50;43.40;;;;;;5074748;28;20249;-46
2022/03/12 08:58:07;;;;;;;16.02;9.85;;;4.60;43.70;;;;;;5073652;28;20227;-46
2022/03/12 09:00:37;;;;;;;14.90;8.35;;;4.70;44.20;;;;;;5073253;28;20207;-45
2022/03/12 09:03:04;;;;;;;15.88;9.23;;;4.80;42.80;;;;;;5073841;28;20257;-45
2022/03/12 09:05:30;;;;;;;16.60;8.07;;;4.30;42.60;;;;;;5055410;28;20218;-45
2022/03/12 09:07:58;;;;;;;16.65;7.88;;;4.80;42.90;;;;;;5073243;28;20663;-44
2022/03/12 09:10:25;;;;;;;11.43;8.18;;;4.70;42.80;;;;;;5073011;28;20227;-46
2022/03/12 09:12:53;;;;;;;13.85;9.73;;;4.60;42.50;;;;;;5073120;28;20508;-44
2022/03/12 09:15:22;;;;;;;14.82;8.60;;;4.90;42.70;;;;;;5073102;28;20199;-46
2022/03/12 09:17:51;;;;;;;17.98;9.80;;;4.90;42.40;;;;;;5072954;28;20199;-45
2022/03/12 09:20:17;;;;;;;13.13;8.40;;;4.80;42.30;;;;;;5072213;28;20284;-45
2022/03/12 09:22:45;;;;;;;15.60;9.20;;;4.40;41.30;;;;;;5072940;28;20191;-44
2022/03/12 09:25:14;;;;;;;13.88;9.05;;;5.00;41.90;;;;;;5055130;28;20199;-45
2022/03/12 09:27:42;;;;;;;19.33;9.07;;;5.10;41.70;;;;;;5073327;28;20187;-44
2022/03/12 09:30:10;;;;;;;15.20;7.63;;;5.20;42.00;;;;;;5072733;28;20215;-45
2022/03/12 09:32:38;;;;;;;14.25;9.52;;;4.80;40.40;;;;;;5072995;28;20197;-45
2022/03/12 09:35:08;;;;;;;13.43;8.18;;;4.90;40.40;;;;;;5073354;28;20281;-46
2022/03/12 09:37:37;;;;;;;13.20;8.57;;;5.10;40.40;;;;;;5072807;28;20195;-46
2022/03/12 09:40:05;;;;;;;13.10;8.10;;;5.50;40.50;;;;;;5072556;28;20510;-45
2022/03/12 09:42:32;;;;;;;12.63;8.57;;;5.20;40.40;;;;;;5072758;28;20256;-45
2022/03/12 09:44:59;;;;;;;13.55;8.02;;;4.90;40.00;;;;;;5072834;28;20191;-46
2022/03/12 09:47:26;;;;;;;14.38;8.73;;;5.60;40.60;;;;;;5072738;28;20302;-46
2022/03/12 09:49:53;;;;;;;14.80;9.33;;;5.60;40.30;;;;;;5072709;28;20223;-45
2022/03/12 09:52:21;;;;;;;14.43;8.27;;;5.70;40.20;;;;;;5072803;28;20448;-46
2022/03/12 09:54:49;;;;;;;11.52;8.32;;;5.70;39.80;;;;;;5072741;28;20800;-46
2022/03/12 09:57:17;;;;;;;13.00;7.30;;;5.70;39.80;;;;;;5072930;28;20219;-46
2022/03/12 09:59:43;;;;;;;11.27;6.90;;;5.50;39.60;;;;;;5071991;28;20624;-46
2022/03/12 10:02:11;;;;;;;14.83;8.50;;;5.80;39.70;;;;;;5072909;28;20458;-45
2022/03/12 10:04:38;;;;;;;9.77;6.80;;;5.70;38.80;;;;;;5072735;28;20426;-46
2022/03/12 10:07:08;;;;;;;16.93;7.70;;;5.80;38.40;;;;;;5073562;28;20477;-46
2022/03/12 10:09:36;;;;;;;9.17;6.70;;;6.10;38.50;;;;;;5073301;28;20419;-46
2022/03/12 10:12:04;;;;;;;10.33;8.40;;;6.20;38.50;;;;;;5072979;28;20433;-46
2022/03/12 10:14:31;;;;;;;10.70;6.80;;;5.90;38.00;;;;;;5073261;28;20854;-45
2022/03/12 10:17:00;;;;;;;15.17;7.10;;;6.30;37.70;;;;;;5073940;28;20425;-46
2022/03/12 10:19:27;;;;;;;9.60;6.50;;;6.00;37.30;;;;;;5073694;28;20528;-46
2022/03/12 10:21:54;;;;;;;12.03;7.20;;;6.10;37.30;;;;;;5072775;28;20429;-46
2022/03/12 10:24:21;;;;;;;11.97;7.50;;;6.10;36.90;;;;;;5072429;28;20506;-46
2022/03/12 10:26:49;;;;;;;11.03;6.80;;;6.30;36.90;;;;;;5072097;28;20466;-46
2022/03/12 10:29:15;;;;;;;15.47;7.27;;;6.00;36.70;;;;;;5071803;28;20426;-47
2022/03/12 10:31:42;;;;;;;9.17;6.30;;;6.50;36.70;;;;;;5071286;28;20455;-46
2022/03/12 10:34:18;;;;;;;10.77;7.17;;;6.70;37.00;;;;;;5072155;28;20453;-46
2022/03/12 10:36:45;;;;;;;13.10;7.20;;;6.50;36.70;;;;;;5072284;28;20473;-46
2022/03/12 10:39:13;;;;;;;12.30;7.67;;;6.70;37.30;;;;;;5072173;28;20520;-45
2022/03/12 10:41:41;;;;;;;11.90;7.33;;;6.60;36.70;;;;;;5071734;28;20455;-46
2022/03/12 10:44:09;;;;;;;10.60;6.93;;;6.30;36.00;;;;;;5072066;28;20443;-45
2022/03/12 10:46:41;;;;;;;11.43;8.47;;;6.60;36.20;;;;;;5072073;28;20474;-44
2022/03/12 10:49:10;;;;;;;11.30;7.27;;;6.70;35.60;;;;;;5071880;28;20435;-46
2022/03/12 10:51:39;;;;;;;15.90;6.70;;;6.60;36.30;;;;;;5071829;28;20455;-46
2022/03/12 10:54:08;;;;;;;11.07;7.20;;;6.60;36.20;;;;;;5072105;28;20938;-45
2022/03/12 10:56:43;;;;;;;11.50;7.27;;;6.30;35.90;;;;;;5071951;28;20807;-45
2022/03/12 10:59:19;;;;;;;10.23;7.10;;;7.00;36.70;;;;;;5053442;28;20513;-45
2022/03/12 11:01:47;;;;;;;11.80;6.90;;;6.90;36.70;;;;;;5072312;28;20501;-46
2022/03/12 11:04:22;;;;;;;13.77;6.93;;;6.80;36.40;;;;;;5072081;28;20427;-45
2022/03/12 11:06:50;;;;;;;10.60;7.40;;;6.70;36.10;;;;;;5071983;28;20474;-45
2022/03/12 11:09:18;;;;;;;11.47;6.97;;;7.00;36.20;;;;;;5071211;28;20940;-45
2022/03/12 11:11:46;;;;;;;10.23;6.80;;;6.70;36.20;;;;;;5072069;28;20527;-45
2022/03/12 11:14:20;;;;;;;11.33;7.57;;;6.80;35.80;;;;;;5071630;28;20442;-44
2022/03/12 11:16:52;;;;;;;12.47;7.63;;;7.30;36.30;;;;;;5053952;28;20859;-45
2022/03/12 11:19:37;;;;;;;9.13;6.97;;;7.10;36.30;;;;;;5071478;28;20440;-44
2022/03/12 11:22:10;;;;;;;9.73;6.80;;;6.90;35.70;;;;;;5072074;28;20978;-44
2022/03/12 11:24:48;;;;;;;14.43;7.13;;;7.10;36.00;;;;;;5072284;28;20517;-44
2022/03/12 11:27:28;;;;;;;11.90;7.63;;;7.00;35.50;;;;;;5072052;28;20470;-45
2022/03/12 11:30:02;;;;;;;11.53;6.20;;;7.30;35.60;;;;;;5072070;28;20485;-45
2022/03/12 11:32:36;;;;;;;9.30;6.13;;;7.20;35.40;;;;;;5072246;28;20904;-45
2022/03/12 11:35:07;;;;;;;9.00;6.23;;;7.50;35.60;;;;;;5071853;28;20436;-44
2022/03/12 11:37:36;;;;;;;9.60;5.50;;;7.50;36.00;;;;;;5071695;28;20431;-45
2022/03/12 11:40:05;;;;;;;9.07;6.13;;;7.50;35.00;;;;;;5071209;28;20459;-44
2022/03/12 11:42:33;;;;;;;7.87;5.00;;;7.40;34.60;;;;;;5074060;28;20443;-45
2022/03/12 11:45:04;;;;;;;10.90;6.57;;;7.80;34.30;;;;;;5076276;28;20430;-45
2022/03/12 11:47:32;;;;;;;7.90;5.83;;;7.50;34.50;;;;;;5075263;28;20479;-45
2022/03/12 11:50:01;;;;;;;8.63;5.50;;;7.70;34.10;;;;;;5076022;28;20835;-45
2022/03/12 11:52:28;;;;;;;7.83;5.37;;;7.80;34.30;;;;;;5076300;28;20476;-46
2022/03/12 11:54:56;;;;;;;8.13;6.30;;;7.90;33.20;;;;;;5076592;28;20836;-45
2022/03/12 11:57:24;;;;;;;7.23;4.80;;;7.70;33.80;;;;;;5074592;28;20524;-44
2022/03/12 11:59:52;;;;;;;10.97;5.77;;;7.70;33.60;;;;;;5074640;28;20473;-46
2022/03/12 12:02:29;;;;;;;8.50;5.50;;;7.80;33.10;;;;;;5075739;28;20864;-45
2022/03/12 12:04:58;;;;;;;11.53;5.70;;;7.90;34.40;;;;;;5074803;28;20436;-47
2022/03/12 12:07:25;;;;;;;8.73;6.40;;;8.20;33.90;;;;;;5077020;28;20491;-43
2022/03/12 12:09:52;;;;;;;10.40;6.67;;;8.30;33.80;;;;;;5076435;28;20474;-45
2022/03/12 12:12:19;;;;;;;8.77;6.13;;;7.80;33.50;;;;;;5075568;28;20436;-46
2022/03/12 12:14:46;;;;;;;10.27;5.80;;;7.90;33.30;;;;;;5074985;28;20474;-44
2022/03/12 12:17:13;;;;;;;7.30;5.53;;;8.20;33.30;;;;;;5075604;28;20511;-45
2022/03/12 12:19:41;;;;;;;10.33;5.00;;;8.20;32.60;;;;;;5075121;28;20961;-45
2022/03/12 12:22:08;;;;;;;10.20;5.53;;;8.20;32.40;;;;;;5075658;28;20803;-45
2022/03/12 12:24:39;;;;;;;6.93;5.30;;;8.30;32.20;;;;;;5074928;28;20805;-44
2022/03/12 12:27:08;;;;;;;6.50;5.30;;;8.30;32.30;;;;;;5074324;28;20547;-44
2022/03/12 12:29:49;;;;;;;8.40;6.13;;;8.90;32.90;;;;;;5074074;28;20433;-44
2022/03/12 12:32:17;;;;;;;12.27;5.63;;;8.50;32.60;;;;;;5074823;28;20439;-44
2022/03/12 12:35:01;;;;;;;8.43;6.37;;;8.60;33.00;;;;;;5077744;28;20432;-45
2022/03/12 12:37:42;;;;;;;9.00;6.00;;;8.50;33.60;;;;;;5077555;28;20845;-44
2022/03/12 12:40:29;;;;;;;10.77;6.23;;;8.60;33.50;;;;;;5075723;28;20502;-44
2022/03/12 12:42:57;;;;;;;8.33;5.67;;;8.90;33.50;;;;;;5074793;28;20777;-45
2022/03/12 12:45:28;;;;;;;7.80;6.33;;;8.70;33.00;;;;;;5074334;28;20417;-44